< < Back
Terminal Aerodrome Forecast


Current Version              Previous Versions:   1  2  3  4  5  6  7  8  9  

Terminal Aerodrome Forecast

200
FTUS42 KCHS 231600 AAB
TAFCHS
TAF AMD
KCHS 231622Z 2316/2412 02010KT P6SM -RA SCT015 OVC035
      TEMPO 2316/2318 5SM -RA SCT007 BKN015
     FM231800 04011G17KT P6SM VCSH SCT012 OVC025
     FM240200 02013G19KT P6SM VCSH SCT015 BKN050=

Latest METAR

735
SAUS80 KWBC 231600
MTRCHS
METAR KCHS 231556Z 03008KT 10SM -RA SCT007 BKN015 OVC035 21/19 A3016 RMK
AO2 SLP212 SCT V BKN P0002 T02060189


USA.gov is the U.S. government's official web portal to all federal, state and local government web resources and services.